sensor_id;sensor_type;location;lat;lon;timestamp;P1;durP1;ratioP1;P2;durP2;ratioP2
39612;SDS011;25303;48.896;13.342;2023-10-13T00:01:18;7.03;;;2.80;;
39612;SDS011;25303;48.896;13.342;2023-10-13T00:04:01;5.43;;;2.80;;
39612;SDS011;25303;48.896;13.342;2023-10-13T00:06:47;5.28;;;2.70;;
39612;SDS011;25303;48.896;13.342;2023-10-13T00:09:30;5.40;;;2.53;;
39612;SDS011;25303;48.896;13.342;2023-10-13T00:12:14;5.57;;;2.60;;
39612;SDS011;25303;48.896;13.342;2023-10-13T00:15:06;5.28;;;2.30;;
39612;SDS011;25303;48.896;13.342;2023-10-13T00:17:55;6.82;;;2.83;;
39612;SDS011;25303;48.896;13.342;2023-10-13T00:20:40;6.90;;;3.00;;
39612;SDS011;25303;48.896;13.342;2023-10-13T00:23:29;5.05;;;2.58;;
39612;SDS011;25303;48.896;13.342;2023-10-13T00:26:14;4.82;;;2.70;;
39612;SDS011;25303;48.896;13.342;2023-10-13T00:29:04;5.88;;;2.85;;
39612;SDS011;25303;48.896;13.342;2023-10-13T00:31:58;7.90;;;2.85;;
39612;SDS011;25303;48.896;13.342;2023-10-13T00:34:43;8.48;;;3.50;;
39612;SDS011;25303;48.896;13.342;2023-10-13T00:37:26;5.60;;;3.15;;
39612;SDS011;25303;48.896;13.342;2023-10-13T00:40:10;9.47;;;4.10;;
39612;SDS011;25303;48.896;13.342;2023-10-13T00:43:08;5.78;;;3.15;;
39612;SDS011;25303;48.896;13.342;2023-10-13T00:46:09;4.95;;;2.55;;
39612;SDS011;25303;48.896;13.342;2023-10-13T00:48:56;5.95;;;2.58;;
39612;SDS011;25303;48.896;13.342;2023-10-13T00:51:38;6.40;;;2.97;;
39612;SDS011;25303;48.896;13.342;2023-10-13T00:54:23;6.53;;;2.42;;
39612;SDS011;25303;48.896;13.342;2023-10-13T00:57:08;4.50;;;2.53;;
39612;SDS011;25303;48.896;13.342;2023-10-13T01:00:08;5.68;;;2.90;;
39612;SDS011;25303;48.896;13.342;2023-10-13T01:03:00;6.70;;;2.75;;
39612;SDS011;25303;48.896;13.342;2023-10-13T01:05:49;6.60;;;2.65;;
39612;SDS011;25303;48.896;13.342;2023-10-13T01:08:35;8.32;;;3.28;;
39612;SDS011;25303;48.896;13.342;2023-10-13T01:11:19;8.30;;;3.47;;
39612;SDS011;25303;48.896;13.342;2023-10-13T01:14:05;8.75;;;3.90;;
39612;SDS011;25303;48.896;13.342;2023-10-13T01:16:48;6.00;;;3.58;;
39612;SDS011;25303;48.896;13.342;2023-10-13T01:19:35;6.95;;;3.65;;
39612;SDS011;25303;48.896;13.342;2023-10-13T01:22:25;12.35;;;4.47;;
39612;SDS011;25303;48.896;13.342;2023-10-13T01:25:11;9.75;;;3.97;;
39612;SDS011;25303;48.896;13.342;2023-10-13T01:28:00;6.72;;;3.70;;
39612;SDS011;25303;48.896;13.342;2023-10-13T01:30:43;7.35;;;4.03;;
39612;SDS011;25303;48.896;13.342;2023-10-13T01:33:32;11.65;;;4.50;;
39612;SDS011;25303;48.896;13.342;2023-10-13T01:36:17;8.60;;;3.95;;
39612;SDS011;25303;48.896;13.342;2023-10-13T01:39:00;6.18;;;3.75;;
39612;SDS011;25303;48.896;13.342;2023-10-13T01:41:44;5.85;;;3.60;;
39612;SDS011;25303;48.896;13.342;2023-10-13T01:44:27;5.65;;;3.08;;
39612;SDS011;25303;48.896;13.342;2023-10-13T01:47:11;6.47;;;3.30;;
39612;SDS011;25303;48.896;13.342;2023-10-13T01:49:54;5.45;;;2.88;;
39612;SDS011;25303;48.896;13.342;2023-10-13T01:52:35;6.13;;;3.28;;
39612;SDS011;25303;48.896;13.342;2023-10-13T01:55:18;7.78;;;3.60;;
39612;SDS011;25303;48.896;13.342;2023-10-13T01:58:02;5.90;;;2.97;;
39612;SDS011;25303;48.896;13.342;2023-10-13T02:00:50;5.40;;;3.00;;
39612;SDS011;25303;48.896;13.342;2023-10-13T02:03:33;5.32;;;2.83;;
39612;SDS011;25303;48.896;13.342;2023-10-13T02:06:22;7.47;;;3.53;;
39612;SDS011;25303;48.896;13.342;2023-10-13T02:09:06;6.45;;;3.10;;
39612;SDS011;25303;48.896;13.342;2023-10-13T02:11:56;5.30;;;2.80;;
39612;SDS011;25303;48.896;13.342;2023-10-13T02:14:39;5.72;;;2.60;;
39612;SDS011;25303;48.896;13.342;2023-10-13T02:17:23;9.30;;;4.10;;
39612;SDS011;25303;48.896;13.342;2023-10-13T02:20:08;7.47;;;3.30;;
39612;SDS011;25303;48.896;13.342;2023-10-13T02:22:56;5.05;;;2.63;;
39612;SDS011;25303;48.896;13.342;2023-10-13T02:25:38;6.30;;;3.00;;
39612;SDS011;25303;48.896;13.342;2023-10-13T02:28:27;6.72;;;2.90;;
39612;SDS011;25303;48.896;13.342;2023-10-13T02:31:13;8.48;;;3.03;;
39612;SDS011;25303;48.896;13.342;2023-10-13T02:33:59;6.22;;;3.53;;
39612;SDS011;25303;48.896;13.342;2023-10-13T02:36:41;5.97;;;3.38;;
39612;SDS011;25303;48.896;13.342;2023-10-13T02:39:30;8.13;;;3.75;;
39612;SDS011;25303;48.896;13.342;2023-10-13T02:42:17;6.07;;;3.33;;
39612;SDS011;25303;48.896;13.342;2023-10-13T02:45:05;8.48;;;3.75;;
39612;SDS011;25303;48.896;13.342;2023-10-13T02:47:50;8.00;;;4.18;;
39612;SDS011;25303;48.896;13.342;2023-10-13T02:50:54;7.10;;;3.67;;
39612;SDS011;25303;48.896;13.342;2023-10-13T02:53:37;8.50;;;3.58;;
39612;SDS011;25303;48.896;13.342;2023-10-13T02:56:20;8.40;;;4.00;;
39612;SDS011;25303;48.896;13.342;2023-10-13T02:59:02;6.35;;;3.40;;
39612;SDS011;25303;48.896;13.342;2023-10-13T03:01:47;6.88;;;3.50;;
39612;SDS011;25303;48.896;13.342;2023-10-13T03:04:35;10.05;;;4.07;;
39612;SDS011;25303;48.896;13.342;2023-10-13T03:07:20;5.93;;;3.72;;
39612;SDS011;25303;48.896;13.342;2023-10-13T03:10:05;7.68;;;3.83;;
39612;SDS011;25303;48.896;13.342;2023-10-13T03:12:52;6.85;;;3.95;;
39612;SDS011;25303;48.896;13.342;2023-10-13T03:15:35;7.00;;;3.17;;
39612;SDS011;25303;48.896;13.342;2023-10-13T03:18:17;6.03;;;3.10;;
39612;SDS011;25303;48.896;13.342;2023-10-13T03:21:02;5.90;;;2.90;;
39612;SDS011;25303;48.896;13.342;2023-10-13T03:23:44;6.32;;;3.72;;
39612;SDS011;25303;48.896;13.342;2023-10-13T03:26:28;5.68;;;3.20;;
39612;SDS011;25303;48.896;13.342;2023-10-13T03:29:16;8.23;;;3.40;;
39612;SDS011;25303;48.896;13.342;2023-10-13T03:32:03;9.98;;;4.15;;
39612;SDS011;25303;48.896;13.342;2023-10-13T03:34:53;8.65;;;3.63;;
39612;SDS011;25303;48.896;13.342;2023-10-13T03:37:54;8.30;;;3.63;;
39612;SDS011;25303;48.896;13.342;2023-10-13T03:40:37;5.65;;;3.42;;
39612;SDS011;25303;48.896;13.342;2023-10-13T03:43:21;11.15;;;4.05;;
39612;SDS011;25303;48.896;13.342;2023-10-13T03:46:05;7.28;;;3.40;;
39612;SDS011;25303;48.896;13.342;2023-10-13T03:51:36;9.05;;;3.22;;
39612;SDS011;25303;48.896;13.342;2023-10-13T03:54:21;9.10;;;4.05;;
39612;SDS011;25303;48.896;13.342;2023-10-13T03:57:04;6.15;;;3.35;;
39612;SDS011;25303;48.896;13.342;2023-10-13T03:59:52;9.85;;;4.38;;
39612;SDS011;25303;48.896;13.342;2023-10-13T04:02:37;7.07;;;3.83;;
39612;SDS011;25303;48.896;13.342;2023-10-13T04:05:27;7.25;;;3.58;;
39612;SDS011;25303;48.896;13.342;2023-10-13T04:08:19;7.97;;;3.70;;
39612;SDS011;25303;48.896;13.342;2023-10-13T04:11:21;8.85;;;4.03;;
39612;SDS011;25303;48.896;13.342;2023-10-13T04:14:55;6.47;;;3.25;;
39612;SDS011;25303;48.896;13.342;2023-10-13T04:17:52;5.63;;;3.10;;
39612;SDS011;25303;48.896;13.342;2023-10-13T04:20:35;7.57;;;3.35;;
39612;SDS011;25303;48.896;13.342;2023-10-13T04:23:19;6.35;;;3.35;;
39612;SDS011;25303;48.896;13.342;2023-10-13T04:26:07;6.00;;;3.47;;
39612;SDS011;25303;48.896;13.342;2023-10-13T04:29:03;6.75;;;3.17;;
39612;SDS011;25303;48.896;13.342;2023-10-13T04:31:55;8.25;;;3.58;;
39612;SDS011;25303;48.896;13.342;2023-10-13T04:34:41;10.57;;;3.70;;
39612;SDS011;25303;48.896;13.342;2023-10-13T04:37:27;6.07;;;3.20;;
39612;SDS011;25303;48.896;13.342;2023-10-13T04:40:14;9.32;;;3.45;;
39612;SDS011;25303;48.896;13.342;2023-10-13T04:43:00;6.63;;;3.08;;
39612;SDS011;25303;48.896;13.342;2023-10-13T04:45:47;6.18;;;3.25;;
39612;SDS011;25303;48.896;13.342;2023-10-13T04:48:35;7.13;;;3.55;;
39612;SDS011;25303;48.896;13.342;2023-10-13T04:51:23;6.35;;;3.50;;
39612;SDS011;25303;48.896;13.342;2023-10-13T04:54:26;6.32;;;3.08;;
39612;SDS011;25303;48.896;13.342;2023-10-13T04:57:15;6.53;;;3.42;;
39612;SDS011;25303;48.896;13.342;2023-10-13T05:00:13;5.80;;;2.88;;
39612;SDS011;25303;48.896;13.342;2023-10-13T05:03:15;6.20;;;2.80;;
39612;SDS011;25303;48.896;13.342;2023-10-13T05:06:27;8.43;;;3.38;;
39612;SDS011;25303;48.896;13.342;2023-10-13T05:09:28;9.90;;;3.72;;
39612;SDS011;25303;48.896;13.342;2023-10-13T05:12:28;7.50;;;3.17;;
39612;SDS011;25303;48.896;13.342;2023-10-13T05:15:41;10.23;;;4.65;;
39612;SDS011;25303;48.896;13.342;2023-10-13T05:18:44;11.73;;;5.18;;
39612;SDS011;25303;48.896;13.342;2023-10-13T05:21:45;12.18;;;5.15;;
39612;SDS011;25303;48.896;13.342;2023-10-13T05:24:45;10.38;;;4.85;;
39612;SDS011;25303;48.896;13.342;2023-10-13T05:27:45;13.38;;;6.38;;
39612;SDS011;25303;48.896;13.342;2023-10-13T05:30:48;17.33;;;6.30;;
39612;SDS011;25303;48.896;13.342;2023-10-13T05:33:50;10.52;;;5.57;;
39612;SDS011;25303;48.896;13.342;2023-10-13T05:36:51;8.73;;;4.43;;
39612;SDS011;25303;48.896;13.342;2023-10-13T05:39:51;6.60;;;4.25;;
39612;SDS011;25303;48.896;13.342;2023-10-13T05:42:52;7.10;;;4.30;;
39612;SDS011;25303;48.896;13.342;2023-10-13T05:45:53;13.65;;;4.60;;
39612;SDS011;25303;48.896;13.342;2023-10-13T05:48:56;11.45;;;5.80;;
39612;SDS011;25303;48.896;13.342;2023-10-13T05:52:08;13.02;;;5.45;;
39612;SDS011;25303;48.896;13.342;2023-10-13T05:55:00;10.90;;;4.97;;
39612;SDS011;25303;48.896;13.342;2023-10-13T05:58:02;12.02;;;4.30;;
39612;SDS011;25303;48.896;13.342;2023-10-13T06:01:17;8.20;;;4.65;;
39612;SDS011;25303;48.896;13.342;2023-10-13T06:04:18;7.40;;;3.70;;
39612;SDS011;25303;48.896;13.342;2023-10-13T06:07:19;10.40;;;4.47;;
39612;SDS011;25303;48.896;13.342;2023-10-13T06:10:28;9.68;;;5.22;;
39612;SDS011;25303;48.896;13.342;2023-10-13T06:13:29;10.20;;;5.10;;
39612;SDS011;25303;48.896;13.342;2023-10-13T06:16:29;13.13;;;5.95;;
39612;SDS011;25303;48.896;13.342;2023-10-13T06:19:31;11.65;;;5.63;;
39612;SDS011;25303;48.896;13.342;2023-10-13T06:22:31;11.38;;;5.47;;
39612;SDS011;25303;48.896;13.342;2023-10-13T06:25:31;16.42;;;7.13;;
39612;SDS011;25303;48.896;13.342;2023-10-13T06:28:32;14.20;;;6.95;;
39612;SDS011;25303;48.896;13.342;2023-10-13T06:31:24;11.90;;;6.22;;
39612;SDS011;25303;48.896;13.342;2023-10-13T06:34:08;11.77;;;6.00;;
39612;SDS011;25303;48.896;13.342;2023-10-13T06:36:52;10.65;;;5.60;;
39612;SDS011;25303;48.896;13.342;2023-10-13T06:42:19;11.48;;;5.72;;
39612;SDS011;25303;48.896;13.342;2023-10-13T06:45:03;13.13;;;5.80;;
39612;SDS011;25303;48.896;13.342;2023-10-13T06:47:49;10.68;;;5.43;;
39612;SDS011;25303;48.896;13.342;2023-10-13T06:50:35;14.32;;;6.47;;
39612;SDS011;25303;48.896;13.342;2023-10-13T06:53:24;14.25;;;7.03;;
39612;SDS011;25303;48.896;13.342;2023-10-13T06:56:11;15.52;;;7.30;;
39612;SDS011;25303;48.896;13.342;2023-10-13T06:58:58;9.10;;;5.18;;
39612;SDS011;25303;48.896;13.342;2023-10-13T07:01:44;14.95;;;4.93;;
39612;SDS011;25303;48.896;13.342;2023-10-13T07:04:30;14.15;;;7.35;;
39612;SDS011;25303;48.896;13.342;2023-10-13T07:07:13;10.88;;;6.55;;
39612;SDS011;25303;48.896;13.342;2023-10-13T07:09:58;11.80;;;5.95;;
39612;SDS011;25303;48.896;13.342;2023-10-13T07:12:41;12.27;;;5.07;;
39612;SDS011;25303;48.896;13.342;2023-10-13T07:15:24;10.02;;;5.00;;
39612;SDS011;25303;48.896;13.342;2023-10-13T07:18:09;10.73;;;5.20;;
39612;SDS011;25303;48.896;13.342;2023-10-13T07:20:54;9.15;;;4.82;;
39612;SDS011;25303;48.896;13.342;2023-10-13T07:26:28;9.25;;;3.78;;
39612;SDS011;25303;48.896;13.342;2023-10-13T07:31:55;7.28;;;3.78;;
39612;SDS011;25303;48.896;13.342;2023-10-13T07:34:40;10.63;;;4.45;;
39612;SDS011;25303;48.896;13.342;2023-10-13T07:37:23;8.20;;;4.10;;
39612;SDS011;25303;48.896;13.342;2023-10-13T07:40:10;8.50;;;4.22;;
39612;SDS011;25303;48.896;13.342;2023-10-13T07:43:22;8.70;;;4.43;;
39612;SDS011;25303;48.896;13.342;2023-10-13T07:46:05;7.97;;;3.75;;
39612;SDS011;25303;48.896;13.342;2023-10-13T07:48:52;9.30;;;4.40;;
39612;SDS011;25303;48.896;13.342;2023-10-13T07:51:35;9.77;;;4.55;;
39612;SDS011;25303;48.896;13.342;2023-10-13T07:54:25;8.60;;;3.83;;
39612;SDS011;25303;48.896;13.342;2023-10-13T07:57:08;10.48;;;4.70;;
39612;SDS011;25303;48.896;13.342;2023-10-13T07:59:57;8.68;;;4.45;;
39612;SDS011;25303;48.896;13.342;2023-10-13T08:02:55;10.68;;;4.57;;
39612;SDS011;25303;48.896;13.342;2023-10-13T08:05:51;9.20;;;4.22;;
39612;SDS011;25303;48.896;13.342;2023-10-13T08:08:40;8.57;;;3.92;;
39612;SDS011;25303;48.896;13.342;2023-10-13T08:11:25;8.55;;;3.72;;
39612;SDS011;25303;48.896;13.342;2023-10-13T08:14:14;8.70;;;4.55;;
39612;SDS011;25303;48.896;13.342;2023-10-13T08:17:20;8.13;;;4.37;;
39612;SDS011;25303;48.896;13.342;2023-10-13T08:20:10;9.85;;;4.75;;
39612;SDS011;25303;48.896;13.342;2023-10-13T08:22:55;10.52;;;5.40;;
39612;SDS011;25303;48.896;13.342;2023-10-13T08:25:54;9.90;;;4.47;;
39612;SDS011;25303;48.896;13.342;2023-10-13T08:29:11;10.52;;;4.53;;
39612;SDS011;25303;48.896;13.342;2023-10-13T08:32:13;9.95;;;5.65;;
39612;SDS011;25303;48.896;13.342;2023-10-13T08:35:19;9.67;;;5.03;;
39612;SDS011;25303;48.896;13.342;2023-10-13T08:38:07;6.20;;;3.60;;
39612;SDS011;25303;48.896;13.342;2023-10-13T08:41:10;8.25;;;3.15;;
39612;SDS011;25303;48.896;13.342;2023-10-13T08:44:14;8.57;;;3.88;;
39612;SDS011;25303;48.896;13.342;2023-10-13T08:47:26;5.95;;;3.55;;
39612;SDS011;25303;48.896;13.342;2023-10-13T08:50:19;6.40;;;2.97;;
39612;SDS011;25303;48.896;13.342;2023-10-13T08:53:29;10.00;;;4.30;;
39612;SDS011;25303;48.896;13.342;2023-10-13T08:56:14;7.30;;;3.10;;
39612;SDS011;25303;48.896;13.342;2023-10-13T08:58:59;9.07;;;3.55;;
39612;SDS011;25303;48.896;13.342;2023-10-13T09:01:46;7.25;;;3.15;;
39612;SDS011;25303;48.896;13.342;2023-10-13T09:04:30;8.85;;;3.42;;
39612;SDS011;25303;48.896;13.342;2023-10-13T09:07:16;9.85;;;3.70;;
39612;SDS011;25303;48.896;13.342;2023-10-13T09:10:03;9.20;;;4.03;;
39612;SDS011;25303;48.896;13.342;2023-10-13T09:13:14;6.32;;;3.25;;
39612;SDS011;25303;48.896;13.342;2023-10-13T09:16:08;6.57;;;3.40;;
39612;SDS011;25303;48.896;13.342;2023-10-13T09:19:01;6.28;;;3.35;;
39612;SDS011;25303;48.896;13.342;2023-10-13T09:21:47;6.97;;;3.08;;
39612;SDS011;25303;48.896;13.342;2023-10-13T09:24:31;5.85;;;2.88;;
39612;SDS011;25303;48.896;13.342;2023-10-13T09:27:18;6.53;;;3.10;;
39612;SDS011;25303;48.896;13.342;2023-10-13T09:30:00;5.00;;;2.88;;
39612;SDS011;25303;48.896;13.342;2023-10-13T09:32:58;8.25;;;3.75;;
39612;SDS011;25303;48.896;13.342;2023-10-13T09:35:43;6.25;;;3.15;;
39612;SDS011;25303;48.896;13.342;2023-10-13T09:38:32;5.57;;;3.13;;
39612;SDS011;25303;48.896;13.342;2023-10-13T09:41:16;5.68;;;3.20;;
39612;SDS011;25303;48.896;13.342;2023-10-13T09:43:59;6.72;;;3.20;;
39612;SDS011;25303;48.896;13.342;2023-10-13T09:46:45;9.68;;;3.80;;
39612;SDS011;25303;48.896;13.342;2023-10-13T09:49:28;5.93;;;2.90;;
39612;SDS011;25303;48.896;13.342;2023-10-13T09:52:26;7.95;;;3.05;;
39612;SDS011;25303;48.896;13.342;2023-10-13T09:55:11;5.05;;;2.45;;
39612;SDS011;25303;48.896;13.342;2023-10-13T09:58:02;6.15;;;2.75;;
39612;SDS011;25303;48.896;13.342;2023-10-13T10:00:53;8.13;;;2.90;;
39612;SDS011;25303;48.896;13.342;2023-10-13T10:03:44;5.57;;;2.75;;
39612;SDS011;25303;48.896;13.342;2023-10-13T10:06:33;7.00;;;2.63;;
39612;SDS011;25303;48.896;13.342;2023-10-13T10:09:26;8.27;;;2.60;;
39612;SDS011;25303;48.896;13.342;2023-10-13T10:12:20;9.43;;;3.00;;
39612;SDS011;25303;48.896;13.342;2023-10-13T10:15:22;7.30;;;2.83;;
39612;SDS011;25303;48.896;13.342;2023-10-13T10:18:19;5.30;;;2.60;;
39612;SDS011;25303;48.896;13.342;2023-10-13T10:21:03;5.68;;;2.20;;
39612;SDS011;25303;48.896;13.342;2023-10-13T10:23:52;6.53;;;2.42;;
39612;SDS011;25303;48.896;13.342;2023-10-13T10:26:35;3.75;;;2.40;;
39612;SDS011;25303;48.896;13.342;2023-10-13T10:29:19;7.20;;;3.00;;
39612;SDS011;25303;48.896;13.342;2023-10-13T10:32:13;5.53;;;2.78;;
39612;SDS011;25303;48.896;13.342;2023-10-13T10:35:01;9.45;;;3.45;;
39612;SDS011;25303;48.896;13.342;2023-10-13T10:37:51;7.75;;;2.67;;
39612;SDS011;25303;48.896;13.342;2023-10-13T10:40:35;6.22;;;2.70;;
39612;SDS011;25303;48.896;13.342;2023-10-13T10:43:28;6.38;;;2.20;;
39612;SDS011;25303;48.896;13.342;2023-10-13T10:46:25;4.97;;;2.50;;
39612;SDS011;25303;48.896;13.342;2023-10-13T10:49:11;4.47;;;2.20;;
39612;SDS011;25303;48.896;13.342;2023-10-13T10:51:56;4.68;;;2.30;;
39612;SDS011;25303;48.896;13.342;2023-10-13T10:54:42;7.07;;;2.30;;
39612;SDS011;25303;48.896;13.342;2023-10-13T10:57:26;5.18;;;2.10;;
39612;SDS011;25303;48.896;13.342;2023-10-13T11:00:20;4.80;;;2.08;;
39612;SDS011;25303;48.896;13.342;2023-10-13T11:03:07;8.38;;;2.63;;
39612;SDS011;25303;48.896;13.342;2023-10-13T11:05:54;8.82;;;3.13;;
39612;SDS011;25303;48.896;13.342;2023-10-13T11:08:37;6.68;;;2.40;;
39612;SDS011;25303;48.896;13.342;2023-10-13T11:11:29;5.85;;;2.03;;
39612;SDS011;25303;48.896;13.342;2023-10-13T11:14:20;7.25;;;2.30;;
39612;SDS011;25303;48.896;13.342;2023-10-13T11:17:05;6.82;;;2.35;;
39612;SDS011;25303;48.896;13.342;2023-10-13T11:19:55;5.85;;;2.10;;
39612;SDS011;25303;48.896;13.342;2023-10-13T11:22:39;7.05;;;2.22;;
39612;SDS011;25303;48.896;13.342;2023-10-13T11:25:29;4.90;;;2.30;;
39612;SDS011;25303;48.896;13.342;2023-10-13T11:28:17;4.95;;;1.95;;
39612;SDS011;25303;48.896;13.342;2023-10-13T11:31:01;4.93;;;2.50;;
39612;SDS011;25303;48.896;13.342;2023-10-13T11:33:52;4.50;;;1.90;;
39612;SDS011;25303;48.896;13.342;2023-10-13T11:36:37;6.60;;;2.20;;
39612;SDS011;25303;48.896;13.342;2023-10-13T11:39:23;5.53;;;2.20;;
39612;SDS011;25303;48.896;13.342;2023-10-13T11:42:14;4.82;;;1.90;;
39612;SDS011;25303;48.896;13.342;2023-10-13T11:44:58;6.82;;;2.53;;
39612;SDS011;25303;48.896;13.342;2023-10-13T11:48:05;7.32;;;2.45;;
39612;SDS011;25303;48.896;13.342;2023-10-13T11:50:54;8.13;;;2.40;;
39612;SDS011;25303;48.896;13.342;2023-10-13T11:53:38;6.72;;;2.47;;
39612;SDS011;25303;48.896;13.342;2023-10-13T11:56:22;4.50;;;2.20;;
39612;SDS011;25303;48.896;13.342;2023-10-13T11:59:05;5.25;;;2.03;;
39612;SDS011;25303;48.896;13.342;2023-10-13T12:01:57;6.20;;;2.00;;
39612;SDS011;25303;48.896;13.342;2023-10-13T12:04:57;5.32;;;2.00;;
39612;SDS011;25303;48.896;13.342;2023-10-13T12:07:41;6.40;;;2.40;;
39612;SDS011;25303;48.896;13.342;2023-10-13T12:10:33;8.15;;;2.65;;
39612;SDS011;25303;48.896;13.342;2023-10-13T12:13:22;10.77;;;2.30;;
39612;SDS011;25303;48.896;13.342;2023-10-13T12:16:06;6.90;;;2.65;;
39612;SDS011;25303;48.896;13.342;2023-10-13T12:18:50;4.85;;;2.30;;
39612;SDS011;25303;48.896;13.342;2023-10-13T12:21:36;5.05;;;2.35;;
39612;SDS011;25303;48.896;13.342;2023-10-13T12:24:19;7.00;;;2.40;;
39612;SDS011;25303;48.896;13.342;2023-10-13T12:27:12;6.70;;;2.40;;
39612;SDS011;25303;48.896;13.342;2023-10-13T12:30:03;6.43;;;2.25;;
39612;SDS011;25303;48.896;13.342;2023-10-13T12:32:49;8.80;;;2.67;;
39612;SDS011;25303;48.896;13.342;2023-10-13T12:35:40;5.90;;;2.60;;
39612;SDS011;25303;48.896;13.342;2023-10-13T12:38:44;4.97;;;2.13;;
39612;SDS011;25303;48.896;13.342;2023-10-13T12:41:53;6.80;;;2.50;;
39612;SDS011;25303;48.896;13.342;2023-10-13T12:44:53;6.57;;;2.50;;
39612;SDS011;25303;48.896;13.342;2023-10-13T12:47:56;6.45;;;2.22;;
39612;SDS011;25303;48.896;13.342;2023-10-13T12:51:12;6.13;;;2.30;;
39612;SDS011;25303;48.896;13.342;2023-10-13T12:54:02;5.35;;;2.50;;
39612;SDS011;25303;48.896;13.342;2023-10-13T12:56:48;7.13;;;2.67;;
39612;SDS011;25303;48.896;13.342;2023-10-13T12:59:36;7.03;;;2.40;;
39612;SDS011;25303;48.896;13.342;2023-10-13T13:02:20;6.22;;;2.22;;
39612;SDS011;25303;48.896;13.342;2023-10-13T13:05:05;5.45;;;2.15;;
39612;SDS011;25303;48.896;13.342;2023-10-13T13:07:53;4.60;;;2.22;;
39612;SDS011;25303;48.896;13.342;2023-10-13T13:10:36;7.20;;;2.30;;
39612;SDS011;25303;48.896;13.342;2023-10-13T13:13:19;6.95;;;2.20;;
39612;SDS011;25303;48.896;13.342;2023-10-13T13:16:06;5.57;;;2.50;;
39612;SDS011;25303;48.896;13.342;2023-10-13T13:18:49;7.10;;;2.10;;
39612;SDS011;25303;48.896;13.342;2023-10-13T13:21:34;5.13;;;2.20;;
39612;SDS011;25303;48.896;13.342;2023-10-13T13:24:17;7.53;;;2.50;;
39612;SDS011;25303;48.896;13.342;2023-10-13T13:27:02;5.75;;;2.42;;
39612;SDS011;25303;48.896;13.342;2023-10-13T13:29:46;5.40;;;2.23;;
39612;SDS011;25303;48.896;13.342;2023-10-13T13:32:29;7.28;;;2.17;;
39612;SDS011;25303;48.896;13.342;2023-10-13T13:35:13;6.45;;;2.40;;
39612;SDS011;25303;48.896;13.342;2023-10-13T13:37:58;5.83;;;2.57;;
39612;SDS011;25303;48.896;13.342;2023-10-13T13:40:47;6.50;;;2.58;;
39612;SDS011;25303;48.896;13.342;2023-10-13T13:43:35;5.20;;;2.13;;
39612;SDS011;25303;48.896;13.342;2023-10-13T13:46:21;7.55;;;2.40;;
39612;SDS011;25303;48.896;13.342;2023-10-13T13:49:09;5.63;;;2.50;;
39612;SDS011;25303;48.896;13.342;2023-10-13T13:52:00;6.65;;;2.35;;
39612;SDS011;25303;48.896;13.342;2023-10-13T13:54:47;6.35;;;2.35;;
39612;SDS011;25303;48.896;13.342;2023-10-13T14:00:13;5.05;;;2.50;;
39612;SDS011;25303;48.896;13.342;2023-10-13T14:02:59;5.93;;;2.38;;
39612;SDS011;25303;48.896;13.342;2023-10-13T14:05:43;7.82;;;2.58;;
39612;SDS011;25303;48.896;13.342;2023-10-13T14:08:26;5.20;;;2.15;;
39612;SDS011;25303;48.896;13.342;2023-10-13T14:11:11;5.28;;;2.30;;
39612;SDS011;25303;48.896;13.342;2023-10-13T14:14:03;6.13;;;2.58;;
39612;SDS011;25303;48.896;13.342;2023-10-13T14:16:46;6.03;;;2.92;;
39612;SDS011;25303;48.896;13.342;2023-10-13T14:19:29;7.80;;;2.38;;
39612;SDS011;25303;48.896;13.342;2023-10-13T14:22:12;5.68;;;2.00;;
39612;SDS011;25303;48.896;13.342;2023-10-13T14:24:56;10.65;;;2.60;;
39612;SDS011;25303;48.896;13.342;2023-10-13T14:27:42;6.35;;;2.35;;
39612;SDS011;25303;48.896;13.342;2023-10-13T14:30:25;8.27;;;2.17;;
39612;SDS011;25303;48.896;13.342;2023-10-13T14:33:12;4.82;;;2.00;;
39612;SDS011;25303;48.896;13.342;2023-10-13T14:35:56;5.13;;;2.25;;
39612;SDS011;25303;48.896;13.342;2023-10-13T14:38:39;5.13;;;2.10;;
39612;SDS011;25303;48.896;13.342;2023-10-13T14:41:26;4.90;;;2.38;;
39612;SDS011;25303;48.896;13.342;2023-10-13T14:44:10;9.43;;;2.42;;
39612;SDS011;25303;48.896;13.342;2023-10-13T14:46:54;5.80;;;2.47;;
39612;SDS011;25303;48.896;13.342;2023-10-13T14:49:37;7.28;;;2.22;;
39612;SDS011;25303;48.896;13.342;2023-10-13T14:52:22;5.95;;;2.17;;
39612;SDS011;25303;48.896;13.342;2023-10-13T14:55:05;5.75;;;2.40;;
39612;SDS011;25303;48.896;13.342;2023-10-13T14:58:00;5.20;;;2.05;;
39612;SDS011;25303;48.896;13.342;2023-10-13T15:00:47;5.20;;;2.30;;
39612;SDS011;25303;48.896;13.342;2023-10-13T15:03:30;8.60;;;2.63;;
39612;SDS011;25303;48.896;13.342;2023-10-13T15:06:19;3.78;;;1.85;;
39612;SDS011;25303;48.896;13.342;2023-10-13T15:09:06;5.72;;;2.00;;
39612;SDS011;25303;48.896;13.342;2023-10-13T15:11:52;4.93;;;2.38;;
39612;SDS011;25303;48.896;13.342;2023-10-13T15:14:35;4.13;;;1.75;;
39612;SDS011;25303;48.896;13.342;2023-10-13T15:17:19;4.97;;;1.98;;
39612;SDS011;25303;48.896;13.342;2023-10-13T15:20:06;6.78;;;2.00;;
39612;SDS011;25303;48.896;13.342;2023-10-13T15:22:51;8.88;;;2.83;;
39612;SDS011;25303;48.896;13.342;2023-10-13T15:25:41;6.45;;;2.10;;
39612;SDS011;25303;48.896;13.342;2023-10-13T15:28:30;4.65;;;1.70;;
39612;SDS011;25303;48.896;13.342;2023-10-13T15:31:14;5.05;;;2.30;;
39612;SDS011;25303;48.896;13.342;2023-10-13T15:34:20;3.53;;;1.60;;
39612;SDS011;25303;48.896;13.342;2023-10-13T15:37:04;4.00;;;1.90;;
39612;SDS011;25303;48.896;13.342;2023-10-13T15:39:47;5.53;;;1.90;;
39612;SDS011;25303;48.896;13.342;2023-10-13T15:42:30;6.10;;;1.90;;
39612;SDS011;25303;48.896;13.342;2023-10-13T15:45:13;4.65;;;1.70;;
39612;SDS011;25303;48.896;13.342;2023-10-13T15:47:59;6.35;;;1.55;;
39612;SDS011;25303;48.896;13.342;2023-10-13T15:51:01;4.68;;;2.00;;
39612;SDS011;25303;48.896;13.342;2023-10-13T15:53:46;5.68;;;2.10;;
39612;SDS011;25303;48.896;13.342;2023-10-13T15:56:30;5.07;;;1.85;;
39612;SDS011;25303;48.896;13.342;2023-10-13T15:59:13;4.53;;;1.60;;
39612;SDS011;25303;48.896;13.342;2023-10-13T16:01:58;6.22;;;2.10;;
39612;SDS011;25303;48.896;13.342;2023-10-13T16:04:41;6.03;;;2.10;;
39612;SDS011;25303;48.896;13.342;2023-10-13T16:07:27;4.65;;;1.90;;
39612;SDS011;25303;48.896;13.342;2023-10-13T16:10:10;4.95;;;1.80;;
39612;SDS011;25303;48.896;13.342;2023-10-13T16:12:54;12.52;;;2.17;;
39612;SDS011;25303;48.896;13.342;2023-10-13T16:15:39;3.30;;;1.92;;
39612;SDS011;25303;48.896;13.342;2023-10-13T16:18:24;5.93;;;1.80;;
39612;SDS011;25303;48.896;13.342;2023-10-13T16:21:08;4.38;;;1.77;;
39612;SDS011;25303;48.896;13.342;2023-10-13T16:23:55;5.65;;;2.00;;
39612;SDS011;25303;48.896;13.342;2023-10-13T16:26:37;7.00;;;1.73;;
39612;SDS011;25303;48.896;13.342;2023-10-13T16:29:22;8.30;;;2.00;;
39612;SDS011;25303;48.896;13.342;2023-10-13T16:32:05;5.57;;;1.95;;
39612;SDS011;25303;48.896;13.342;2023-10-13T16:34:50;4.47;;;2.00;;
39612;SDS011;25303;48.896;13.342;2023-10-13T16:37:33;5.60;;;2.30;;
39612;SDS011;25303;48.896;13.342;2023-10-13T16:40:17;7.10;;;2.22;;
39612;SDS011;25303;48.896;13.342;2023-10-13T16:43:01;5.90;;;2.05;;
39612;SDS011;25303;48.896;13.342;2023-10-13T16:45:44;4.53;;;2.03;;
39612;SDS011;25303;48.896;13.342;2023-10-13T16:48:27;5.63;;;1.95;;
39612;SDS011;25303;48.896;13.342;2023-10-13T16:53:55;4.30;;;1.90;;
39612;SDS011;25303;48.896;13.342;2023-10-13T16:56:41;5.25;;;2.00;;
39612;SDS011;25303;48.896;13.342;2023-10-13T16:59:24;4.80;;;2.08;;